createdAt,value
2018-06-15T00:03:46.779Z,20.23
2018-06-15T00:08:49.813Z,20.22
2018-06-15T00:13:52.860Z,20.19
2018-06-15T00:18:55.854Z,20.21
2018-06-15T00:23:58.908Z,20.23
2018-06-15T00:29:02.043Z,20.16
2018-06-15T00:34:05.114Z,20.13
2018-06-15T00:39:10.741Z,20.10
2018-06-15T00:44:13.789Z,20.13
2018-06-15T00:49:16.847Z,20.23
2018-06-15T00:54:19.890Z,20.23
2018-06-15T00:59:22.953Z,20.24
2018-06-15T01:04:25.961Z,20.17
2018-06-15T01:09:29.017Z,20.16
2018-06-15T01:14:32.066Z,20.15
2018-06-15T01:19:35.985Z,20.15
2018-06-15T01:24:40.042Z,20.14
2018-06-15T01:29:43.102Z,20.13
2018-06-15T01:34:46.113Z,20.15
2018-06-15T01:39:49.175Z,20.14
2018-06-15T01:44:52.213Z,20.13
2018-06-15T01:49:55.185Z,20.18
2018-06-15T01:54:58.240Z,20.18
2018-06-15T02:00:01.274Z,20.19
2018-06-15T02:05:04.366Z,20.20
2018-06-15T02:10:07.437Z,20.23
2018-06-15T02:15:10.485Z,20.23
2018-06-15T02:20:13.557Z,20.23
2018-06-15T02:25:16.604Z,20.23
2018-06-15T02:30:19.643Z,20.20
2018-06-15T02:35:22.648Z,20.22
2018-06-15T02:40:25.765Z,20.21
2018-06-15T02:45:28.832Z,20.20
2018-06-15T02:50:31.844Z,20.15
2018-06-15T02:55:34.925Z,20.13
2018-06-15T03:00:37.999Z,20.14
2018-06-15T03:05:41.190Z,20.13
2018-06-15T03:10:44.279Z,20.12
2018-06-15T03:15:47.301Z,20.12
2018-06-15T03:20:50.363Z,20.11
2018-06-15T03:25:53.380Z,20.11
2018-06-15T03:30:56.478Z,20.15
2018-06-15T03:35:59.678Z,20.15
2018-06-15T03:41:02.733Z,20.05
2018-06-15T03:46:05.740Z,20.13
2018-06-15T03:51:08.798Z,20.08
2018-06-15T03:56:11.861Z,19.90
2018-06-15T04:01:14.854Z,19.76
2018-06-15T04:06:17.850Z,19.67
2018-06-15T04:11:20.834Z,19.60
2018-06-15T04:16:23.846Z,19.66
2018-06-15T04:21:26.841Z,19.70
2018-06-15T04:26:29.865Z,19.86
2018-06-15T04:31:32.925Z,19.98
2018-06-15T04:36:35.929Z,20.17
2018-06-15T04:41:39.038Z,20.23
2018-06-15T04:46:42.126Z,20.35
2018-06-15T04:51:45.118Z,20.53
2018-06-15T04:56:48.122Z,20.74
2018-06-15T05:01:51.134Z,20.89
2018-06-15T05:06:54.113Z,20.94
2018-06-15T05:11:57.072Z,21.00
2018-06-15T05:17:00.166Z,21.14
2018-06-15T05:22:03.158Z,21.34
2018-06-15T05:27:06.417Z,21.95
2018-06-15T05:32:09.401Z,22.47
2018-06-15T05:37:12.419Z,23.08
2018-06-15T05:42:15.437Z,23.16
2018-06-15T05:47:18.442Z,23.15
2018-06-15T05:52:21.450Z,23.11
2018-06-15T05:57:24.437Z,22.75
2018-06-15T06:02:27.438Z,22.81
2018-06-15T06:07:30.425Z,22.99
2018-06-15T06:12:33.421Z,23.12
2018-06-15T06:17:36.415Z,23.26
2018-06-15T06:22:39.597Z,23.43
2018-06-15T06:27:42.639Z,23.83
2018-06-15T06:32:45.691Z,23.97
2018-06-15T06:37:48.715Z,24.06
2018-06-15T06:42:51.690Z,23.75
2018-06-15T06:47:54.685Z,23.27
2018-06-15T06:52:57.726Z,23.57
2018-06-15T06:58:00.727Z,23.68
2018-06-15T07:03:03.732Z,23.76
2018-06-15T07:08:06.738Z,24.10
2018-06-15T07:13:09.720Z,24.24
2018-06-15T07:18:12.984Z,24.65
2018-06-15T07:23:15.993Z,25.20
2018-06-15T07:28:19.029Z,25.48
2018-06-15T07:33:22.087Z,25.52
2018-06-15T07:38:25.081Z,25.41
2018-06-15T07:43:28.061Z,25.20
2018-06-15T07:48:31.095Z,25.03
2018-06-15T07:53:34.125Z,24.64
2018-06-15T07:58:37.101Z,24.27
2018-06-15T08:03:43.611Z,24.38
2018-06-15T08:08:46.614Z,25.01
2018-06-15T08:13:49.607Z,25.81
2018-06-15T08:18:52.706Z,26.16
2018-06-15T08:23:55.844Z,26.64
2018-06-15T08:28:58.828Z,27.06
2018-06-15T08:34:01.861Z,26.77
2018-06-15T08:39:08.826Z,26.87
2018-06-15T08:44:11.846Z,27.06
2018-06-15T08:49:14.829Z,27.36
2018-06-15T08:54:17.874Z,27.29
2018-06-15T08:59:20.857Z,26.91
2018-06-15T09:04:23.937Z,27.47
2018-06-15T09:09:26.965Z,27.71
2018-06-15T09:14:30.008Z,27.38
2018-06-15T09:19:33.014Z,27.00
2018-06-15T09:24:36.018Z,26.87
2018-06-15T09:29:39.017Z,26.92
2018-06-15T09:34:42.023Z,27.29
2018-06-15T09:39:45.019Z,27.66
2018-06-15T09:44:48.009Z,27.84
2018-06-15T09:49:50.957Z,27.76
2018-06-15T09:54:53.993Z,26.77
2018-06-15T09:59:56.973Z,26.87
2018-06-15T10:05:00.035Z,27.07
2018-06-15T10:10:03.112Z,27.19
2018-06-15T10:15:06.105Z,26.91
2018-06-15T10:20:09.434Z,26.46
2018-06-15T10:25:12.463Z,26.81
2018-06-15T10:30:15.469Z,27.53
2018-06-15T10:35:18.486Z,28.77
2018-06-15T10:40:21.522Z,28.80
2018-06-15T10:45:24.522Z,28.19
2018-06-15T10:50:27.505Z,27.95
2018-06-15T10:55:30.510Z,27.94
2018-06-15T11:00:33.526Z,28.51
2018-06-15T11:05:36.534Z,28.60
2018-06-15T11:10:39.557Z,28.10
2018-06-15T11:15:42.643Z,28.11
2018-06-15T11:20:45.645Z,29.15
2018-06-15T11:25:48.677Z,29.76
2018-06-15T11:30:51.736Z,30.01
2018-06-15T11:35:54.747Z,30.05
2018-06-15T11:40:57.785Z,29.60
2018-06-15T11:46:00.750Z,28.87
2018-06-15T11:51:03.758Z,28.72
2018-06-15T11:56:06.786Z,28.57
2018-06-15T12:01:09.815Z,29.07
2018-06-15T12:06:12.833Z,29.53
2018-06-15T12:11:15.840Z,30.29
2018-06-15T12:16:18.833Z,30.04
2018-06-15T12:21:21.835Z,30.60
2018-06-15T12:26:25.029Z,31.12
2018-06-15T12:31:28.157Z,30.64
2018-06-15T12:36:31.166Z,29.88
2018-06-15T12:41:34.161Z,29.52
2018-06-15T12:46:37.177Z,29.43
2018-06-15T12:51:40.162Z,28.37
2018-06-15T12:56:43.177Z,28.34
2018-06-15T13:01:46.180Z,28.60
2018-06-15T13:06:49.174Z,28.92
2018-06-15T13:11:52.207Z,29.02
2018-06-15T13:16:55.198Z,29.23
2018-06-15T13:21:58.182Z,29.82
2018-06-15T13:27:01.346Z,30.63
2018-06-15T13:32:04.374Z,31.15
2018-06-15T13:37:07.402Z,30.92
2018-06-15T13:42:10.389Z,30.58
2018-06-15T13:47:13.401Z,30.48
2018-06-15T13:52:16.397Z,30.70
2018-06-15T13:57:19.383Z,31.08
2018-06-15T14:02:22.361Z,30.83
2018-06-15T14:07:25.562Z,30.73
2018-06-15T14:12:28.602Z,30.61
2018-06-15T14:17:31.608Z,29.74
2018-06-15T14:22:34.582Z,30.16
2018-06-15T14:27:37.590Z,30.28
2018-06-15T14:32:40.603Z,30.70
2018-06-15T14:37:43.570Z,30.85
2018-06-15T14:42:46.585Z,30.71
2018-06-15T14:47:49.633Z,30.44
2018-06-15T14:52:52.642Z,30.28
2018-06-15T14:57:55.625Z,28.96
2018-06-15T15:02:58.597Z,29.24
2018-06-15T15:08:02.524Z,30.04
2018-06-15T15:13:05.523Z,30.57
2018-06-15T15:18:09.213Z,30.92
2018-06-15T15:23:12.934Z,30.97
2018-06-15T15:28:16.039Z,30.99
2018-06-15T15:33:19.098Z,30.90
2018-06-15T15:38:22.179Z,30.90
2018-06-15T15:43:25.220Z,30.84
2018-06-15T15:48:28.226Z,30.53
2018-06-15T15:53:31.222Z,30.43
2018-06-15T15:58:34.304Z,30.32
2018-06-15T16:03:37.321Z,30.05
2018-06-15T16:08:40.310Z,30.10
2018-06-15T16:13:43.349Z,30.13
2018-06-15T16:18:48.289Z,30.18
2018-06-15T16:23:51.365Z,29.97
2018-06-15T16:28:54.394Z,29.78
2018-06-15T16:33:57.427Z,29.61
2018-06-15T16:39:00.434Z,30.00
2018-06-15T16:44:03.475Z,29.68
2018-06-15T16:49:06.559Z,29.42
2018-06-15T16:54:09.558Z,29.15
2018-06-15T16:59:12.642Z,29.53
2018-06-15T17:04:15.650Z,29.52
2018-06-15T17:09:18.654Z,29.48
2018-06-15T17:14:21.641Z,29.16
2018-06-15T17:19:24.741Z,28.82
2018-06-15T17:24:27.687Z,28.56
2018-06-15T17:29:30.753Z,28.21
2018-06-15T17:34:33.745Z,27.92
2018-06-15T17:39:37.326Z,27.74
2018-06-15T17:44:40.430Z,27.69
2018-06-15T17:49:43.410Z,27.52
2018-06-15T17:54:46.492Z,27.44
2018-06-15T17:59:49.550Z,27.28
2018-06-15T18:04:52.549Z,27.17
2018-06-15T18:09:55.621Z,27.03
2018-06-15T18:14:58.671Z,26.95
2018-06-15T18:20:01.718Z,26.75
2018-06-15T18:25:05.094Z,26.62
2018-06-15T18:30:08.264Z,26.45
2018-06-15T18:35:11.310Z,26.38
2018-06-15T18:40:14.301Z,26.25
2018-06-15T18:45:17.298Z,26.04
2018-06-15T18:50:20.416Z,26.02
2018-06-15T18:55:23.596Z,25.84
2018-06-15T19:00:26.739Z,25.62
2018-06-15T19:05:29.786Z,25.42
2018-06-15T19:10:32.814Z,25.28
2018-06-15T19:15:35.872Z,25.09
2018-06-15T19:20:38.909Z,24.97
2018-06-15T19:25:41.987Z,24.83
2018-06-15T19:30:45.059Z,24.80
2018-06-15T19:35:48.392Z,24.67
2018-06-15T19:40:51.406Z,24.63
2018-06-15T19:45:54.398Z,24.58
2018-06-15T19:50:57.385Z,24.52
2018-06-15T19:56:00.393Z,24.42
2018-06-15T20:01:04.633Z,24.30
2018-06-15T20:06:09.293Z,24.19
2018-06-15T20:11:13.676Z,24.09
2018-06-15T20:16:17.704Z,24.02
2018-06-15T20:21:21.966Z,23.93
2018-06-15T20:26:26.037Z,23.79
2018-06-15T20:31:30.094Z,23.64
2018-06-15T20:36:35.093Z,23.46
2018-06-15T20:41:39.776Z,23.34
2018-06-15T20:46:43.777Z,23.24
2018-06-15T20:51:48.136Z,23.11
2018-06-15T20:56:52.338Z,23.07
2018-06-15T21:01:55.745Z,23.03
2018-06-15T21:06:59.810Z,22.94
2018-06-15T21:12:03.940Z,22.87
2018-06-15T21:17:08.312Z,22.78
2018-06-15T21:22:12.371Z,22.60
2018-06-15T21:27:16.335Z,22.61
2018-06-15T21:37:23.066Z,22.51
2018-06-15T21:42:27.698Z,22.36
2018-06-15T21:47:33.564Z,22.16
2018-06-15T21:52:37.126Z,22.04
2018-06-15T21:57:41.152Z,22.04
2018-06-15T22:02:45.710Z,22.06
2018-06-15T22:07:50.561Z,21.98
2018-06-15T22:12:54.831Z,21.90
2018-06-15T22:17:57.941Z,21.81
2018-06-15T22:23:00.994Z,21.74
2018-06-15T22:28:04.000Z,21.67
2018-06-15T22:33:07.070Z,21.60
2018-06-15T22:38:10.129Z,21.58
2018-06-15T22:43:13.151Z,21.49
2018-06-15T22:48:16.205Z,21.44
2018-06-15T22:53:19.201Z,21.38
2018-06-15T22:58:22.259Z,21.29
2018-06-15T23:03:25.285Z,21.16
2018-06-15T23:08:28.294Z,21.16
2018-06-15T23:13:31.330Z,21.18
2018-06-15T23:18:34.363Z,21.22
2018-06-15T23:23:37.368Z,21.22
2018-06-15T23:28:40.415Z,21.24
2018-06-15T23:33:43.423Z,21.20
2018-06-15T23:38:46.410Z,21.20
2018-06-15T23:43:49.441Z,21.33
2018-06-15T23:48:52.450Z,21.54
2018-06-15T23:53:55.489Z,21.66
2018-06-15T23:58:58.526Z,21.79
